Time;durP1;ratioP1;P1;durP2;ratioP2;P2;SDS_P1;SDS_P2;PMS_P1;PMS_P2;Temp;Humidity;BMP_temperature;BMP_pressure;BME280_temperature;BME280_humidity;BME280_pressure;Samples;Min_cycle;Max_cycle;Signal;HPM_P1;HPM_P2
2023/05/23 00:01:57;;;;;;;14.15;3.17;;;12.70;99.90;;;;;;5059755;28;20048;-57
2023/05/23 00:04:25;;;;;;;15.43;3.05;;;12.60;99.90;;;;;;5073328;28;20059;-57
2023/05/23 00:06:54;;;;;;;12.48;3.83;;;12.60;99.90;;;;;;5053021;28;20063;-56
2023/05/23 00:09:22;;;;;;;20.23;3.03;;;12.60;99.90;;;;;;5060472;28;20045;-58
2023/05/23 00:11:50;;;;;;;14.82;2.50;;;12.60;99.90;;;;;;5067955;28;20052;-57
2023/05/23 00:14:17;;;;;;;13.77;2.20;;;12.60;99.90;;;;;;5066374;28;20063;-58
2023/05/23 00:16:48;;;;;;;15.48;3.05;;;12.70;99.90;;;;;;5061940;28;20049;-57
2023/05/23 00:19:16;;;;;;;14.50;2.90;;;;;;;;;;5064876;28;20052;-58
2023/05/23 00:21:51;;;;;;;19.83;3.00;;;12.70;99.90;;;;;;5065112;28;20612;-59
2023/05/23 00:24:19;;;;;;;16.90;2.72;;;12.70;99.90;;;;;;5069441;28;20051;-59
2023/05/23 00:26:47;;;;;;;13.57;2.80;;;12.80;99.90;;;;;;5088245;28;20040;-57
2023/05/23 00:29:16;;;;;;;11.20;2.80;;;12.80;99.90;;;;;;5064523;28;20044;-57
2023/05/23 00:31:47;;;;;;;12.95;2.78;;;12.80;99.90;;;;;;5066631;28;20051;-57
2023/05/23 00:34:16;;;;;;;13.68;2.65;;;12.80;99.90;;;;;;5066637;28;20218;-58
2023/05/23 00:36:49;;;;;;;13.02;2.53;;;12.80;99.90;;;;;;5061714;28;20056;-56
2023/05/23 00:39:20;;;;;;;13.65;2.30;;;12.80;99.90;;;;;;5059478;28;20063;-58
2023/05/23 00:41:49;;;;;;;9.73;2.78;;;12.90;99.90;;;;;;5067670;28;20403;-57
2023/05/23 00:44:20;;;;;;;13.07;2.92;;;12.90;99.90;;;;;;5066177;28;20049;-58
2023/05/23 00:46:53;;;;;;;10.52;2.22;;;12.90;99.90;;;;;;5067014;28;20511;-58
2023/05/23 00:49:22;;;;;;;14.23;2.72;;;12.90;99.90;;;;;;5064282;28;20045;-58
2023/05/23 00:51:51;;;;;;;14.50;2.55;;;12.90;99.90;;;;;;5064301;28;20037;-58
2023/05/23 00:54:32;;;;;;;15.60;2.78;;;12.90;99.90;;;;;;5071777;28;20052;-58
2023/05/23 00:57:00;;;;;;;13.07;2.83;;;13.00;99.90;;;;;;5086472;28;20047;-57
2023/05/23 00:59:28;;;;;;;11.30;3.08;;;13.00;99.90;;;;;;5068176;28;20044;-58
2023/05/23 01:01:59;;;;;;;15.40;2.97;;;13.00;99.90;;;;;;5064482;28;20041;-57
2023/05/23 01:04:27;;;;;;;16.30;2.65;;;13.00;99.90;;;;;;5062735;28;20384;-58
2023/05/23 01:06:56;;;;;;;18.38;3.03;;;13.10;99.90;;;;;;5044286;28;20048;-57
2023/05/23 01:09:27;;;;;;;17.00;2.58;;;13.00;99.90;;;;;;5063129;28;20195;-58
2023/05/23 01:12:01;;;;;;;16.00;2.42;;;13.10;99.90;;;;;;5066377;28;20057;-57
2023/05/23 01:14:52;;;;;;;16.92;2.80;;;13.10;99.90;;;;;;5069809;28;20048;-58
2023/05/23 01:17:47;;;;;;;15.90;3.13;;;13.10;99.90;;;;;;5051676;28;20526;-57
2023/05/23 01:20:27;;;;;;;21.33;3.40;;;13.10;99.90;;;;;;5059226;28;20499;-58
2023/05/23 01:23:00;;;;;;;33.60;3.90;;;13.10;99.90;;;;;;5055319;28;20515;-57
2023/05/23 01:25:52;;;;;;;19.00;2.67;;;13.10;99.90;;;;;;5065180;28;20041;-57
2023/05/23 01:28:25;;;;;;;14.75;2.67;;;13.10;99.90;;;;;;5064968;28;20052;-57
2023/05/23 01:30:57;;;;;;;16.33;2.78;;;13.10;99.90;;;;;;5047677;28;20087;-56
2023/05/23 01:33:26;;;;;;;20.10;2.90;;;13.10;99.90;;;;;;5051146;28;20049;-56
2023/05/23 01:36:00;;;;;;;13.43;3.38;;;13.10;99.90;;;;;;5053358;28;20052;-57
2023/05/23 01:38:28;;;;;;;21.02;2.95;;;13.10;99.90;;;;;;5067178;28;20053;-58
2023/05/23 01:40:56;;;;;;;14.68;2.63;;;13.10;99.90;;;;;;5049563;28;20055;-55
2023/05/23 01:43:25;;;;;;;18.25;3.40;;;13.10;99.90;;;;;;5050783;28;20059;-57
2023/05/23 01:45:54;;;;;;;14.75;2.65;;;13.10;99.90;;;;;;5054420;28;20301;-57
2023/05/23 01:48:24;;;;;;;14.50;3.05;;;13.10;99.90;;;;;;5069988;28;20049;-57
2023/05/23 01:50:53;;;;;;;18.08;2.63;;;13.10;99.90;;;;;;5069588;28;20059;-58
2023/05/23 01:53:23;;;;;;;15.18;3.03;;;13.00;99.90;;;;;;5070913;28;20060;-59
2023/05/23 01:55:52;;;;;;;19.67;3.30;;;13.00;99.90;;;;;;5041898;28;20053;-58
2023/05/23 01:58:21;;;;;;;13.25;2.20;;;13.00;99.90;;;;;;5052130;28;20045;-58
2023/05/23 02:00:49;;;;;;;9.43;2.88;;;13.00;99.90;;;;;;5055812;28;20044;-57
2023/05/23 02:03:17;;;;;;;17.83;3.20;;;13.00;99.90;;;;;;5069167;28;20052;-57
2023/05/23 02:05:45;;;;;;;10.65;2.90;;;12.90;99.90;;;;;;5067133;28;20037;-58
2023/05/23 02:08:13;;;;;;;14.35;2.83;;;12.90;99.90;;;;;;5067204;28;20044;-58
2023/05/23 02:10:41;;;;;;;19.58;3.83;;;12.90;99.90;;;;;;5073934;28;20044;-58
2023/05/23 02:13:09;;;;;;;16.55;2.92;;;12.90;99.90;;;;;;5073938;28;20056;-58
2023/05/23 02:15:37;;;;;;;14.40;3.40;;;12.90;99.90;;;;;;5071589;28;20127;-58
2023/05/23 02:18:08;;;;;;;13.07;2.42;;;12.80;99.90;;;;;;5072018;28;20383;-58
2023/05/23 02:20:42;;;;;;;12.88;3.35;;;12.80;99.90;;;;;;5079898;28;20048;-58
2023/05/23 02:23:10;;;;;;;12.20;2.58;;;15.90;99.90;;;;;;5077247;28;20646;-57
2023/05/23 02:25:38;;;;;;;11.98;2.60;;;12.70;99.90;;;;;;5081716;28;20048;-57
2023/05/23 02:28:06;;;;;;;17.17;3.30;;;12.70;99.90;;;;;;5055556;28;20053;-56
2023/05/23 02:30:34;;;;;;;20.58;4.65;;;12.70;99.90;;;;;;5069136;28;20048;-57
2023/05/23 02:33:06;;;;;;;10.68;2.78;;;12.80;99.90;;;;;;5070499;28;20036;-57
2023/05/23 02:35:35;;;;;;;15.93;2.92;;;12.70;99.90;;;;;;5071345;28;20049;-56
2023/05/23 02:38:02;;;;;;;14.35;2.97;;;12.70;99.90;;;;;;5072923;28;20041;-57
2023/05/23 02:40:30;;;;;;;14.20;2.58;;;12.70;99.90;;;;;;5070049;28;20041;-57
2023/05/23 02:42:58;;;;;;;17.50;2.75;;;12.70;99.90;;;;;;5064245;28;20052;-58
2023/05/23 02:45:26;;;;;;;17.85;2.80;;;12.70;99.90;;;;;;5067004;28;20037;-58
2023/05/23 02:47:54;;;;;;;17.58;3.83;;;12.70;99.90;;;;;;5065642;28;20049;-58
2023/05/23 02:50:21;;;;;;;17.67;3.20;;;12.70;99.90;;;;;;5070726;28;20419;-57
2023/05/23 02:52:49;;;;;;;12.32;2.92;;;12.70;99.90;;;;;;5074777;28;20040;-57
2023/05/23 02:55:18;;;;;;;9.38;3.13;;;12.60;99.90;;;;;;5067546;28;20033;-58
2023/05/23 02:57:47;;;;;;;;;;;12.60;99.90;;;;;;5072441;28;20049;-57
2023/05/23 03:00:16;;;;;;;17.63;3.47;;;12.60;99.90;;;;;;5062918;28;19921;-58
2023/05/23 03:02:49;;;;;;;20.10;3.53;;;12.50;99.90;;;;;;5052078;28;20041;-56
2023/05/23 03:05:17;;;;;;;16.63;2.88;;;12.50;99.90;;;;;;5060252;28;20407;-58
2023/05/23 03:07:45;;;;;;;23.08;3.33;;;12.50;99.90;;;;;;5060643;28;20048;-58
2023/05/23 03:10:13;;;;;;;13.60;3.10;;;12.40;99.90;;;;;;5069204;28;20040;-56
2023/05/23 03:12:42;;;;;;;12.88;2.40;;;12.40;99.90;;;;;;5071975;28;20045;-57
2023/05/23 03:15:10;;;;;;;10.15;2.97;;;12.40;99.90;;;;;;5062879;28;20045;-56
2023/05/23 03:17:41;;;;;;;10.73;2.20;;;12.30;99.90;;;;;;5069738;28;20036;-56
2023/05/23 03:20:10;;;;;;;17.48;2.90;;;12.30;99.90;;;;;;5068808;28;20047;-56
2023/05/23 03:22:40;;;;;;;14.30;3.45;;;12.20;99.90;;;;;;5038824;28;20056;-57
2023/05/23 03:25:09;;;;;;;13.30;3.22;;;12.10;99.90;;;;;;5077965;28;20044;-57
2023/05/23 03:27:37;;;;;;;23.05;3.17;;;12.00;99.90;;;;;;5071363;28;20037;-57
2023/05/23 03:30:06;;;;;;;14.02;2.70;;;12.00;99.90;;;;;;5071053;28;20044;-57
2023/05/23 03:32:35;;;;;;;18.85;3.38;;;11.90;99.90;;;;;;5071439;28;20064;-56
2023/05/23 03:35:04;;;;;;;11.85;2.40;;;11.90;99.90;;;;;;5060390;28;20056;-55
2023/05/23 03:37:32;;;;;;;16.38;2.72;;;11.80;99.90;;;;;;5068196;28;20051;-57
2023/05/23 03:40:00;;;;;;;13.98;2.83;;;11.80;99.90;;;;;;5053417;28;20049;-56
2023/05/23 03:42:29;;;;;;;8.93;2.65;;;11.70;99.90;;;;;;5071142;28;20495;-58
2023/05/23 03:44:57;;;;;;;10.63;2.67;;;11.70;99.90;;;;;;5071148;28;20048;-58
2023/05/23 03:47:25;;;;;;;15.30;3.78;;;11.70;99.90;;;;;;5072275;28;20047;-57
2023/05/23 03:49:55;;;;;;;14.20;2.83;;;11.70;99.90;;;;;;5063078;28;20059;-56
2023/05/23 03:52:24;;;;;;;13.52;3.85;;;11.70;99.90;;;;;;5066007;28;20037;-58
2023/05/23 03:54:52;;;;;;;13.18;3.97;;;11.60;99.90;;;;;;5092319;28;20051;-57
2023/05/23 03:57:20;;;;;;;13.80;2.97;;;11.70;99.90;;;;;;5092162;28;20051;-56
2023/05/23 03:59:47;;;;;;;14.48;4.78;;;9.40;99.90;;;;;;5083389;28;20040;-56
2023/05/23 04:02:15;;;;;;;16.55;3.00;;;11.70;99.90;;;;;;5070727;28;20040;-57
2023/05/23 04:04:43;;;;;;;17.10;3.40;;;11.80;99.90;;;;;;5072016;28;20484;-57
2023/05/23 04:07:11;;;;;;;11.93;3.83;;;11.80;99.90;;;;;;5055348;28;20052;-59
2023/05/23 04:09:41;;;;;;;19.35;3.97;;;11.80;99.90;;;;;;5054693;28;20041;-58
2023/05/23 04:12:10;;;;;;;15.93;3.30;;;11.80;99.90;;;;;;5069906;28;20044;-58
2023/05/23 04:14:38;;;;;;;15.50;3.13;;;11.90;99.90;;;;;;5070491;28;20044;-57
2023/05/23 04:17:07;;;;;;;13.02;4.00;;;11.90;99.90;;;;;;5070328;28;20067;-57
2023/05/23 04:19:37;;;;;;;25.13;4.63;;;11.90;99.90;;;;;;5069333;28;20032;-56
2023/05/23 04:22:05;;;;;;;13.77;2.67;;;12.00;99.90;;;;;;5076456;28;20048;-57
2023/05/23 04:24:33;;;;;;;17.75;3.08;;;12.00;99.90;;;;;;5086581;28;20049;-57
2023/05/23 04:27:01;;;;;;;17.38;2.70;;;12.00;99.90;;;;;;5050287;28;20056;-56
2023/05/23 04:29:30;;;;;;;14.63;3.17;;;12.10;99.90;;;;;;5065661;28;20041;-58
2023/05/23 04:31:59;;;;;;;18.40;3.63;;;12.10;99.90;;;;;;5070269;28;20055;-57
2023/05/23 04:34:29;;;;;;;18.40;3.92;;;12.10;99.90;;;;;;5070210;28;20047;-57
2023/05/23 04:36:57;;;;;;;11.73;4.15;;;12.10;99.90;;;;;;5069921;28;20063;-57
2023/05/23 04:39:26;;;;;;;16.63;4.32;;;12.10;99.90;;;;;;5069552;28;20044;-57
2023/05/23 04:42:13;;;;;;;12.32;3.05;;;12.20;99.90;;;;;;5071491;28;20048;-57
2023/05/23 04:45:14;;;;;;;21.63;4.82;;;12.20;99.90;;;;;;5047944;28;20052;-57
2023/05/23 04:47:55;;;;;;;13.48;2.83;;;12.30;99.90;;;;;;5056544;28;20049;-57
2023/05/23 04:50:36;;;;;;;15.40;3.95;;;12.30;99.90;;;;;;5054400;28;20044;-59
2023/05/23 04:53:05;;;;;;;13.20;3.10;;;12.30;99.90;;;;;;5052128;28;20037;-57
2023/05/23 04:55:34;;;;;;;17.15;3.10;;;12.40;99.90;;;;;;5046720;28;20520;-57
2023/05/23 04:58:03;;;;;;;13.23;3.38;;;12.40;99.90;;;;;;5055306;28;20052;-57
2023/05/23 05:00:31;;;;;;;21.15;4.95;;;12.40;99.90;;;;;;5054492;28;20212;-57
2023/05/23 05:03:00;;;;;;;23.40;5.10;;;12.40;99.90;;;;;;5046573;28;20051;-56
2023/05/23 05:05:30;;;;;;;18.60;3.78;;;12.50;99.90;;;;;;5061079;28;20044;-57
2023/05/23 05:07:58;;;;;;;24.58;5.03;;;12.50;99.90;;;;;;5064897;28;20053;-57
2023/05/23 05:10:26;;;;;;;20.08;4.28;;;12.50;99.90;;;;;;5063798;28;20396;-57
2023/05/23 05:12:54;;;;;;;16.15;3.42;;;12.60;99.90;;;;;;5060863;28;20060;-57
2023/05/23 05:15:22;;;;;;;14.05;3.17;;;12.60;99.90;;;;;;5060367;28;20484;-57
2023/05/23 05:17:55;;;;;;;16.30;3.72;;;12.60;99.90;;;;;;5052298;28;20040;-58
2023/05/23 05:20:23;;;;;;;13.27;2.85;;;12.70;99.90;;;;;;5045716;28;20045;-58
2023/05/23 05:22:57;;;;;;;19.00;3.15;;;12.70;99.90;;;;;;5064196;28;20074;-57
2023/05/23 05:25:26;;;;;;;15.48;4.40;;;12.70;99.90;;;;;;5045673;28;20045;-57
2023/05/23 05:27:54;;;;;;;14.63;4.20;;;12.70;99.90;;;;;;5062834;28;20052;-56
2023/05/23 05:30:23;;;;;;;26.35;3.97;;;12.70;99.90;;;;;;5052217;28;20071;-57
2023/05/23 05:32:56;;;;;;;16.05;3.58;;;12.70;99.90;;;;;;5060379;28;20045;-57
2023/05/23 05:35:25;;;;;;;22.13;3.80;;;12.70;99.90;;;;;;5052940;28;20045;-58
2023/05/23 05:37:52;;;;;;;22.35;4.30;;;12.70;99.90;;;;;;5061833;28;20036;-56
2023/05/23 05:40:21;;;;;;;21.23;3.80;;;12.70;99.90;;;;;;5066142;28;20067;-56
2023/05/23 05:42:49;;;;;;;17.08;3.75;;;;;;;;;;5065632;28;20051;-57
2023/05/23 05:45:20;;;;;;;23.42;4.90;;;12.70;99.90;;;;;;5065105;28;20044;-56
2023/05/23 05:47:50;;;;;;;22.52;3.35;;;12.60;99.90;;;;;;5058704;28;20404;-56
2023/05/23 05:50:20;;;;;;;21.70;4.03;;;12.70;99.90;;;;;;5054573;28;20041;-57
2023/05/23 05:52:48;;;;;;;16.95;3.25;;;12.60;99.90;;;;;;5066903;28;20063;-58
2023/05/23 05:55:16;;;;;;;15.15;3.28;;;12.60;99.90;;;;;;5064813;28;20048;-57
2023/05/23 05:57:49;;;;;;;16.15;2.92;;;12.60;99.90;;;;;;5063230;28;20066;-58
2023/05/23 06:00:19;;;;;;;19.25;3.38;;;12.70;99.90;;;;;;5053765;28;20049;-57
2023/05/23 06:02:53;;;;;;;23.92;3.35;;;12.70;99.90;;;;;;5060415;28;20044;-58
2023/05/23 06:05:38;;;;;;;15.60;2.88;;;12.70;99.90;;;;;;5058853;28;20290;-58
2023/05/23 06:08:07;;;;;;;16.88;3.95;;;12.70;99.90;;;;;;5072497;28;20403;-57
2023/05/23 06:10:38;;;;;;;17.55;3.35;;;12.70;99.90;;;;;;5050241;28;20072;-56
2023/05/23 06:13:06;;;;;;;21.98;4.28;;;12.70;99.90;;;;;;5053274;28;20048;-56
2023/05/23 06:15:38;;;;;;;14.50;2.95;;;12.80;99.90;;;;;;5059708;28;20044;-57
2023/05/23 06:18:07;;;;;;;12.80;2.72;;;12.90;99.90;;;;;;5065968;28;20067;-58
2023/05/23 06:20:36;;;;;;;20.90;3.03;;;;;;;;;;5058311;28;22465;-57
2023/05/23 06:23:07;;;;;;;8.40;3.63;;;13.00;99.90;;;;;;5055415;28;21726;-58
2023/05/23 06:25:35;;;;;;;20.08;4.70;;;13.00;99.90;;;;;;5064313;28;20047;-56
2023/05/23 06:28:03;;;;;;;20.55;3.63;;;13.00;99.90;;;;;;5067489;28;20056;-57
2023/05/23 06:30:32;;;;;;;13.70;2.70;;;13.10;99.90;;;;;;5063279;28;20041;-58
2023/05/23 06:33:00;;;;;;;17.25;3.20;;;;;;;;;;5064935;28;20051;-56
2023/05/23 06:35:28;;;;;;;20.08;3.92;;;13.20;99.90;;;;;;5061387;28;20802;-58
2023/05/23 06:37:56;;;;;;;21.73;3.17;;;12.40;99.90;;;;;;5067803;28;20045;-57
2023/05/23 06:40:24;;;;;;;19.58;3.10;;;13.20;99.90;;;;;;5063373;28;20052;-57
2023/05/23 06:42:51;;;;;;;19.27;4.47;;;13.30;99.90;;;;;;5069806;28;20518;-57
2023/05/23 06:45:34;;;;;;;18.92;3.38;;;13.30;99.90;;;;;;5041041;28;20049;-58
2023/05/23 06:48:03;;;;;;;15.63;3.35;;;13.30;99.90;;;;;;5069897;28;20044;-58
2023/05/23 06:50:34;;;;;;;23.90;3.38;;;13.40;99.90;;;;;;5065438;28;20048;-58
2023/05/23 06:53:02;;;;;;;19.42;3.58;;;13.40;99.90;;;;;;5058467;28;20032;-57
2023/05/23 06:55:32;;;;;;;26.73;4.80;;;13.50;99.90;;;;;;5054981;28;20064;-58
2023/05/23 06:58:02;;;;;;;18.45;3.17;;;13.60;99.90;;;;;;5062773;28;20044;-56
2023/05/23 07:00:31;;;;;;;13.63;3.30;;;13.70;99.90;;;;;;5053682;28;20052;-57
2023/05/23 07:03:26;;;;;;;17.08;5.03;;;13.80;99.90;;;;;;5056160;28;20419;-57
2023/05/23 07:05:59;;;;;;;19.33;3.45;;;13.90;99.90;;;;;;5054631;28;20056;-58
2023/05/23 07:08:27;;;;;;;17.48;4.43;;;14.00;99.90;;;;;;5055272;28;20048;-59
2023/05/23 07:11:00;;;;;;;19.15;3.38;;;14.10;99.90;;;;;;5061649;28;20040;-59
2023/05/23 07:13:32;;;;;;;26.60;4.00;;;14.20;99.90;;;;;;5059978;28;20052;-59
2023/05/23 07:16:00;;;;;;;13.68;4.00;;;14.30;99.90;;;;;;5061099;28;20056;-58
2023/05/23 07:18:27;;;;;;;19.95;4.00;;;14.40;99.90;;;;;;5059643;28;20048;-58
2023/05/23 07:20:57;;;;;;;15.80;3.23;;;14.50;99.90;;;;;;5033467;28;20412;-58
2023/05/23 07:23:25;;;;;;;19.33;3.42;;;14.50;99.90;;;;;;5059446;28;20400;-58
2023/05/23 07:25:53;;;;;;;19.08;4.07;;;14.50;99.90;;;;;;5061875;28;20033;-59
2023/05/23 07:28:55;;;;;;;22.25;3.70;;;14.60;99.90;;;;;;5051833;28;20527;-59
2023/05/23 07:31:23;;;;;;;25.35;4.30;;;14.70;99.90;;;;;;5057212;28;20522;-59
2023/05/23 07:33:54;;;;;;;13.13;3.00;;;14.70;99.90;;;;;;5050386;28;20048;-59
2023/05/23 07:36:32;;;;;;;22.23;4.13;;;14.80;99.90;;;;;;5061698;28;20637;-59
2023/05/23 07:39:02;;;;;;;21.52;5.00;;;14.90;99.90;;;;;;5064732;28;20040;-58
2023/05/23 07:41:31;;;;;;;20.23;5.43;;;;;;;;;;5058483;28;20483;-59
2023/05/23 07:44:03;;;;;;;21.38;3.97;;;15.00;99.90;;;;;;5065398;28;20498;-58
2023/05/23 07:46:31;;;;;;;19.02;3.75;;;15.00;99.90;;;;;;5058558;28;20037;-59
2023/05/23 07:49:00;;;;;;;17.75;4.63;;;15.00;99.90;;;;;;5083844;28;20510;-59
2023/05/23 07:51:27;;;;;;;19.15;3.95;;;15.00;99.90;;;;;;5078709;28;20402;-57
2023/05/23 07:53:56;;;;;;;23.42;4.68;;;15.10;99.90;;;;;;5065254;28;20049;-56
2023/05/23 07:56:25;;;;;;;21.80;4.57;;;15.00;99.90;;;;;;5076929;28;20152;-58
2023/05/23 07:58:53;;;;;;;19.50;4.97;;;15.00;99.90;;;;;;5056777;28;20044;-57
2023/05/23 08:01:23;;;;;;;14.30;4.13;;;15.10;99.90;;;;;;5056019;28;20041;-57
2023/05/23 08:04:03;;;;;;;18.85;4.55;;;15.10;99.90;;;;;;5074993;28;20041;-58
2023/05/23 08:06:36;;;;;;;24.05;4.75;;;15.10;99.90;;;;;;5070580;28;20484;-57
2023/05/23 08:09:16;;;;;;;17.50;4.35;;;15.10;99.90;;;;;;5053437;28;20045;-57
2023/05/23 08:11:50;;;;;;;16.30;5.57;;;15.10;99.90;;;;;;5060592;28;20040;-57
2023/05/23 08:14:20;;;;;;;27.00;5.28;;;15.00;99.90;;;;;;5060746;28;20047;-58
2023/05/23 08:16:56;;;;;;;19.65;4.75;;;15.00;99.90;;;;;;5058230;28;20033;-58
2023/05/23 08:19:27;;;;;;;25.13;5.88;;;14.80;99.90;;;;;;5058010;28;20045;-57
2023/05/23 08:21:56;;;;;;;21.40;5.18;;;14.80;99.90;;;;;;5066355;28;20044;-58
2023/05/23 08:24:24;;;;;;;22.67;6.30;;;14.80;99.90;;;;;;5053936;28;20041;-59
2023/05/23 08:26:52;;;;;;;26.90;5.70;;;14.80;99.90;;;;;;5062299;28;20047;-58
2023/05/23 08:29:21;;;;;;;23.55;5.00;;;14.80;99.90;;;;;;5055614;28;20048;-56
2023/05/23 08:31:53;;;;;;;24.13;6.47;;;14.80;99.90;;;;;;5063008;28;20049;-57
2023/05/23 08:34:21;;;;;;;19.60;4.93;;;14.80;99.90;;;;;;5057957;28;20483;-57
2023/05/23 08:36:49;;;;;;;28.83;6.18;;;14.90;99.90;;;;;;5048564;28;20067;-57
2023/05/23 08:39:20;;;;;;;20.70;5.35;;;14.90;99.90;;;;;;5074880;28;20051;-57
2023/05/23 08:41:55;;;;;;;26.27;6.30;;;14.90;99.90;;;;;;5059205;28;20053;-55
2023/05/23 08:44:23;;;;;;;21.30;6.50;;;15.00;99.90;;;;;;5046343;28;20427;-57
2023/05/23 08:47:01;;;;;;;17.70;5.28;;;15.00;99.90;;;;;;5065415;28;20279;-57
2023/05/23 08:50:11;;;;;;;25.33;6.30;;;15.10;99.90;;;;;;5047591;28;20052;-57
2023/05/23 08:52:46;;;;;;;30.55;7.28;;;15.20;99.90;;;;;;5046698;28;20037;-57
2023/05/23 08:55:16;;;;;;;17.02;6.18;;;15.30;99.90;;;;;;5064274;28;20503;-57
2023/05/23 08:57:44;;;;;;;;;;;15.40;99.90;;;;;;5063126;28;20488;-58
2023/05/23 09:00:29;;;;;;;19.02;6.28;;;;;;;;;;5062735;28;20418;-57
2023/05/23 09:02:57;;;;;;;21.52;7.00;;;15.80;99.90;;;;;;5062570;28;20055;-58
2023/05/23 09:05:41;;;;;;;28.63;7.47;;;16.00;99.90;;;;;;5050118;28;20060;-58
2023/05/23 09:08:09;;;;;;;28.50;8.00;;;16.10;99.90;;;;;;5065526;28;20047;-58
2023/05/23 09:10:39;;;;;;;20.77;7.25;;;16.30;99.90;;;;;;5064790;28;20044;-58
2023/05/23 09:13:08;;;;;;;17.92;6.57;;;16.30;99.90;;;;;;5061832;28;20532;-58
2023/05/23 09:16:01;;;;;;;20.25;7.32;;;16.40;99.90;;;;;;5029834;28;20049;-59
2023/05/23 09:18:39;;;;;;;18.83;7.10;;;16.40;99.90;;;;;;5067266;28;20423;-59
2023/05/23 09:21:08;;;;;;;19.15;7.63;;;16.50;99.90;;;;;;5051544;28;20407;-58
2023/05/23 09:23:40;;;;;;;22.73;7.63;;;16.60;99.90;;;;;;5064939;28;20053;-58
2023/05/23 09:26:12;;;;;;;19.40;8.05;;;16.50;99.90;;;;;;5069220;28;20213;-57
2023/05/23 09:28:41;;;;;;;;;;;16.60;99.90;;;;;;5052015;28;20044;-57
2023/05/23 09:31:11;;;;;;;21.33;7.53;;;16.70;99.90;;;;;;5057743;28;19925;-56
2023/05/23 09:33:48;;;;;;;21.05;7.10;;;16.80;99.90;;;;;;5061087;28;20044;-56
2023/05/23 09:36:18;;;;;;;27.10;7.65;;;16.90;99.90;;;;;;5049680;28;20048;-56
2023/05/23 09:38:51;;;;;;;19.38;7.55;;;16.90;99.90;;;;;;5062336;28;20074;-56
2023/05/23 09:41:20;;;;;;;17.58;7.72;;;17.00;99.90;;;;;;5050910;28;20040;-57
2023/05/23 09:43:53;;;;;;;22.25;7.18;;;17.00;99.90;;;;;;5066103;28;20051;-57
2023/05/23 09:46:21;;;;;;;25.90;7.70;;;17.10;99.90;;;;;;5068024;28;20088;-57
2023/05/23 09:48:51;;;;;;;23.92;8.23;;;17.20;99.90;;;;;;5062691;28;20052;-57
2023/05/23 09:51:20;;;;;;;;;;;17.30;99.90;;;;;;5063359;28;20036;-58
2023/05/23 09:53:49;;;;;;;25.83;10.07;;;17.40;99.90;;;;;;5064187;28;19921;-57
2023/05/23 09:56:18;;;;;;;26.00;11.52;;;17.50;99.90;;;;;;5062715;28;20048;-58
2023/05/23 09:58:47;;;;;;;32.20;12.32;;;17.60;99.90;;;;;;5067082;28;20222;-57
2023/05/23 10:01:15;;;;;;;23.80;11.53;;;17.60;99.90;;;;;;5068125;28;20033;-57
2023/05/23 10:03:54;;;;;;;24.25;11.90;;;17.70;99.90;;;;;;5068362;28;20052;-58
2023/05/23 10:06:31;;;;;;;19.95;9.82;;;17.80;99.90;;;;;;5060412;28;20044;-58
2023/05/23 10:09:03;;;;;;;24.38;9.68;;;17.90;99.90;;;;;;5062105;28;20048;-58
2023/05/23 10:11:34;;;;;;;31.45;10.05;;;17.80;99.90;;;;;;5067050;28;20071;-57
2023/05/23 10:14:05;;;;;;;25.75;9.43;;;17.80;99.90;;;;;;5066039;28;20571;-57
2023/05/23 10:16:39;;;;;;;27.15;10.40;;;17.90;99.90;;;;;;5061440;28;20499;-59
2023/05/23 10:19:25;;;;;;;18.00;8.40;;;18.00;99.90;;;;;;5063594;28;20522;-58
2023/05/23 10:22:01;;;;;;;21.05;9.70;;;18.20;99.90;;;;;;5062333;28;20401;-59
2023/05/23 10:24:30;;;;;;;20.23;8.32;;;18.20;99.90;;;;;;5060053;28;20047;-58
2023/05/23 10:26:58;;;;;;;21.15;8.90;;;18.30;99.90;;;;;;5067653;28;20208;-58
2023/05/23 10:29:28;;;;;;;25.17;8.98;;;18.40;99.90;;;;;;5064026;28;20048;-58
2023/05/23 10:31:57;;;;;;;23.00;9.07;;;18.50;99.90;;;;;;5060422;28;20254;-57
2023/05/23 10:34:37;;;;;;;23.77;8.73;;;18.60;99.90;;;;;;5063960;28;20045;-58
2023/05/23 10:37:06;;;;;;;26.00;10.23;;;18.60;99.90;;;;;;5060800;28;20115;-57
2023/05/23 10:39:49;;;;;;;22.85;8.25;;;18.80;99.90;;;;;;5056663;28;20506;-58
2023/05/23 10:42:32;;;;;;;16.35;6.47;;;18.90;99.90;;;;;;5065012;28;20040;-57
2023/05/23 10:45:20;;;;;;;30.30;7.80;;;19.10;99.90;;;;;;5069726;28;20063;-58
2023/05/23 10:47:51;;;;;;;20.83;6.95;;;19.20;99.90;;;;;;5065850;28;20488;-56
2023/05/23 10:50:36;;;;;;;16.10;7.10;;;19.30;99.90;;;;;;5054439;28;20041;-58
2023/05/23 10:53:05;;;;;;;23.77;7.70;;;19.40;99.90;;;;;;5068059;28;20451;-58
2023/05/23 10:55:34;;;;;;;22.55;7.88;;;19.60;99.90;;;;;;5062111;28;20051;-57
2023/05/23 10:58:20;;;;;;;18.15;6.90;;;19.60;99.90;;;;;;5077137;28;20070;-59
2023/05/23 11:00:58;;;;;;;21.50;8.15;;;19.60;99.90;;;;;;5064477;28;20048;-57
2023/05/23 11:03:33;;;;;;;22.60;7.38;;;19.50;99.90;;;;;;5064516;28;20068;-57
2023/05/23 11:06:04;;;;;;;15.68;6.85;;;19.40;99.90;;;;;;5055768;28;20228;-57
2023/05/23 11:08:41;;;;;;;21.08;6.47;;;19.30;99.90;;;;;;5075400;28;20629;-57
2023/05/23 11:11:15;;;;;;;20.40;6.75;;;19.20;99.90;;;;;;5065394;28;20045;-58
2023/05/23 11:13:52;;;;;;;24.58;7.45;;;19.00;99.90;;;;;;5057072;28;20037;-58
2023/05/23 11:16:24;;;;;;;23.92;7.88;;;18.80;99.90;;;;;;5052330;28;20056;-56
2023/05/23 11:19:17;;;;;;;22.25;7.30;;;18.70;99.90;;;;;;5083064;28;20056;-57
2023/05/23 11:21:52;;;;;;;25.25;7.43;;;18.70;99.90;;;;;;5049534;28;20060;-58
2023/05/23 11:24:20;;;;;;;21.65;7.30;;;19.00;99.90;;;;;;5060528;28;20396;-58
2023/05/23 11:26:53;;;;;;;15.15;6.68;;;19.30;99.90;;;;;;5067977;28;20051;-57
2023/05/23 11:29:20;;;;;;;21.73;6.47;;;19.40;99.90;;;;;;5067247;28;20048;-57
2023/05/23 11:31:49;;;;;;;25.17;6.30;;;19.60;99.90;;;;;;5051373;28;20053;-57
2023/05/23 11:34:18;;;;;;;20.00;6.88;;;19.80;99.90;;;;;;5069079;28;20048;-57
2023/05/23 11:36:46;;;;;;;20.35;6.18;;;19.80;99.90;;;;;;5056528;28;20064;-57
2023/05/23 11:39:14;;;;;;;19.13;7.53;;;20.10;99.90;;;;;;5069703;28;20048;-58
2023/05/23 11:41:42;;;;;;;24.88;7.55;;;20.40;99.90;;;;;;5056686;28;20044;-58
2023/05/23 11:44:12;;;;;;;21.50;6.82;;;20.30;99.90;;;;;;5064938;28;20411;-57
2023/05/23 11:46:40;;;;;;;19.02;6.50;;;20.50;99.90;;;;;;5067261;28;20049;-58
2023/05/23 11:49:11;;;;;;;20.30;6.45;;;20.40;99.90;;;;;;5057515;28;20048;-58
2023/05/23 11:51:40;;;;;;;14.40;5.82;;;20.40;99.90;;;;;;5066031;28;20045;-58
2023/05/23 11:54:08;;;;;;;16.83;7.25;;;20.40;99.90;;;;;;5068045;28;20051;-58
2023/05/23 11:56:39;;;;;;;20.25;7.05;;;20.50;99.90;;;;;;5062145;28;20404;-58
2023/05/23 11:59:08;;;;;;;20.70;6.90;;;20.60;99.90;;;;;;5064284;28;20052;-59
2023/05/23 12:01:36;;;;;;;20.30;7.20;;;20.60;99.90;;;;;;5061014;28;20287;-57
2023/05/23 12:04:12;;;;;;;24.85;7.45;;;20.60;99.90;;;;;;5081300;28;20089;-57
2023/05/23 12:06:40;;;;;;;17.75;7.13;;;20.50;99.90;;;;;;5055650;28;20500;-56
2023/05/23 12:09:11;;;;;;;20.85;8.55;;;20.50;99.90;;;;;;5057744;28;20037;-59
2023/05/23 12:11:40;;;;;;;25.83;8.27;;;20.60;99.90;;;;;;5063467;28;20111;-57
2023/05/23 12:14:12;;;;;;;23.40;7.38;;;20.80;99.90;;;;;;5069036;28;20514;-57
2023/05/23 12:16:47;;;;;;;16.05;6.80;;;21.00;99.90;;;;;;5056666;28;20400;-59
2023/05/23 12:19:18;;;;;;;16.13;6.15;;;21.40;99.90;;;;;;5062987;28;20407;-59
2023/05/23 12:21:47;;;;;;;19.83;6.13;;;21.40;99.90;;;;;;5056674;28;20044;-58
2023/05/23 12:24:20;;;;;;;21.67;6.45;;;21.50;99.90;;;;;;5067844;28;20048;-58
2023/05/23 12:26:53;;;;;;;18.65;6.43;;;21.90;99.90;;;;;;5065890;28;20037;-59
2023/05/23 12:29:27;;;;;;;18.95;6.93;;;22.00;99.90;;;;;;5066885;28;20067;-58
2023/05/23 12:31:58;;;;;;;18.38;5.95;;;22.20;99.90;;;;;;5050823;28;20064;-58
2023/05/23 12:34:26;;;;;;;16.30;5.82;;;22.20;99.90;;;;;;5066355;28;20273;-59
2023/05/23 12:36:55;;;;;;;15.32;5.40;;;22.70;99.90;;;;;;5065642;28;20045;-58
2023/05/23 12:39:44;;;;;;;21.48;5.97;;;22.70;99.90;;;;;;5065025;28;20036;-58
2023/05/23 12:42:11;;;;;;;16.15;5.57;;;22.80;98.40;;;;;;5047843;28;20376;-59
2023/05/23 12:44:42;;;;;;;17.83;6.13;;;22.90;98.40;;;;;;5065568;28;20075;-59
2023/05/23 12:47:13;;;;;;;15.90;5.55;;;23.00;99.20;;;;;;5059141;28;20488;-59
2023/05/23 12:49:43;;;;;;;16.88;5.82;;;23.20;97.60;;;;;;5056114;28;20040;-59
2023/05/23 12:52:11;;;;;;;19.23;6.80;;;23.70;95.70;;;;;;5061707;28;20033;-59
2023/05/23 12:54:39;;;;;;;16.80;5.47;;;23.70;96.10;;;;;;5066574;28;20044;-58
2023/05/23 12:57:07;;;;;;;17.88;6.00;;;24.00;96.30;;;;;;5066806;28;20515;-58
2023/05/23 12:59:35;;;;;;;14.10;6.00;;;24.20;95.60;;;;;;5076189;28;20063;-58
2023/05/23 13:02:03;;;;;;;15.15;5.55;;;24.40;94.50;;;;;;5063835;28;20052;-58